createdAt,value
2023-02-18T00:00:52.958Z,2.00
2023-02-18T00:03:42.912Z,1.97
2023-02-18T00:06:32.943Z,1.80
2023-02-18T00:09:21.516Z,1.63
2023-02-18T00:12:09.981Z,1.90
2023-02-18T00:14:58.558Z,2.10
2023-02-18T00:17:47.040Z,1.70
2023-02-18T00:20:37.117Z,1.90
2023-02-18T00:23:25.963Z,2.20
2023-02-18T00:26:16.524Z,1.90
2023-02-18T00:29:05.533Z,1.90
2023-02-18T00:31:54.158Z,1.90
2023-02-18T00:34:42.713Z,1.80
2023-02-18T00:37:35.182Z,2.30
2023-02-18T00:40:23.867Z,2.30
2023-02-18T00:43:12.550Z,1.90
2023-02-18T00:46:02.147Z,1.90
2023-02-18T00:48:50.912Z,2.07
2023-02-18T00:51:39.351Z,2.30
2023-02-18T00:54:29.275Z,2.30
2023-02-18T00:57:17.753Z,2.50
2023-02-18T01:00:07.945Z,2.10
2023-02-18T01:02:56.379Z,2.10
2023-02-18T01:05:45.772Z,2.30
2023-02-18T01:08:34.752Z,2.17
2023-02-18T01:11:24.637Z,1.97
2023-02-18T01:14:13.086Z,1.90
2023-02-18T01:17:01.589Z,2.23
2023-02-18T01:19:50.122Z,2.00
2023-02-18T01:22:38.851Z,2.10
2023-02-18T01:25:27.402Z,2.37
2023-02-18T01:28:18.307Z,2.20
2023-02-18T01:31:08.220Z,1.97
2023-02-18T01:33:56.702Z,2.20
2023-02-18T01:36:45.125Z,2.30
2023-02-18T01:39:33.646Z,2.47
2023-02-18T01:42:24.138Z,2.20
2023-02-18T01:45:49.989Z,2.30
2023-02-18T01:48:42.717Z,2.43
2023-02-18T01:51:32.973Z,2.30
2023-02-18T01:54:24.600Z,2.47
2023-02-18T01:57:16.183Z,2.90
2023-02-18T02:00:12.037Z,2.60
2023-02-18T02:03:00.631Z,2.80
2023-02-18T02:05:50.433Z,2.63
2023-02-18T02:08:38.935Z,2.40
2023-02-18T02:11:41.221Z,2.30
2023-02-18T02:14:45.575Z,2.83
2023-02-18T02:17:39.127Z,2.50
2023-02-18T02:21:06.000Z,2.83
2023-02-18T02:24:14.091Z,2.60
2023-02-18T02:27:14.208Z,2.50
2023-02-18T02:30:43.535Z,2.73
2023-02-18T02:33:58.945Z,3.17
2023-02-18T02:36:53.093Z,3.57
2023-02-18T02:39:48.287Z,3.13
2023-02-18T02:42:47.855Z,3.37
2023-02-18T02:45:46.763Z,3.90
2023-02-18T02:48:40.226Z,4.33
2023-02-18T02:51:31.986Z,4.43
2023-02-18T02:54:24.512Z,3.40
2023-02-18T02:57:44.493Z,3.80
2023-02-18T03:00:40.011Z,4.00
2023-02-18T03:03:40.357Z,4.20
2023-02-18T03:06:38.696Z,4.00
2023-02-18T03:09:36.975Z,3.77
2023-02-18T03:12:30.095Z,4.50
2023-02-18T03:15:24.854Z,3.80
2023-02-18T03:18:17.988Z,4.60
2023-02-18T03:21:09.804Z,3.37
2023-02-18T03:24:01.230Z,4.37
2023-02-18T03:26:55.077Z,4.60
2023-02-18T03:29:45.871Z,3.90
2023-02-18T03:32:35.660Z,3.43
2023-02-18T03:35:24.629Z,3.60
2023-02-18T03:38:16.749Z,3.97
2023-02-18T03:41:05.975Z,4.73
2023-02-18T03:44:00.898Z,3.27
2023-02-18T03:46:49.359Z,3.87
2023-02-18T03:49:37.884Z,3.20
2023-02-18T03:52:26.309Z,3.57
2023-02-18T03:55:14.911Z,3.53
2023-02-18T03:58:03.332Z,3.60
2023-02-18T04:00:53.187Z,3.30
2023-02-18T04:03:41.687Z,3.87
2023-02-18T04:06:30.600Z,3.37
2023-02-18T04:09:19.039Z,3.50
2023-02-18T04:12:08.037Z,3.23
2023-02-18T04:14:56.508Z,3.60
2023-02-18T04:17:46.317Z,3.17
2023-02-18T04:20:34.721Z,3.10
2023-02-18T04:23:23.264Z,3.50
2023-02-18T04:26:11.707Z,2.93
2023-02-18T04:29:00.165Z,3.10
2023-02-18T04:31:48.944Z,3.60
2023-02-18T04:34:38.797Z,3.47
2023-02-18T04:37:27.305Z,4.03
2023-02-18T04:40:16.224Z,3.40
2023-02-18T04:43:04.847Z,3.27
2023-02-18T04:45:53.413Z,3.20
2023-02-18T04:48:42.351Z,3.27
2023-02-18T04:51:32.194Z,3.00
2023-02-18T04:54:20.647Z,3.00
2023-02-18T04:57:09.080Z,3.63
2023-02-18T04:59:57.563Z,3.50
2023-02-18T05:02:46.379Z,3.10
2023-02-18T05:05:35.883Z,3.10
2023-02-18T05:08:25.720Z,3.57
2023-02-18T05:11:14.206Z,3.03
2023-02-18T05:14:02.700Z,3.33
2023-02-18T05:16:51.192Z,3.97
2023-02-18T05:19:39.837Z,3.60
2023-02-18T05:22:28.283Z,3.50
2023-02-18T05:25:18.318Z,3.80
2023-02-18T05:28:06.845Z,3.70
2023-02-18T05:30:55.301Z,3.23
2023-02-18T05:33:43.820Z,2.90
2023-02-18T05:36:32.279Z,3.40
2023-02-18T05:39:20.747Z,2.90
2023-02-18T05:42:10.599Z,3.40
2023-02-18T05:44:59.068Z,3.60
2023-02-18T05:47:47.512Z,3.50
2023-02-18T05:50:36.404Z,3.50
2023-02-18T05:53:24.843Z,3.80
2023-02-18T05:56:13.365Z,3.20
2023-02-18T05:59:03.189Z,3.47
2023-02-18T06:01:52.013Z,3.30
2023-02-18T06:04:40.824Z,3.80
2023-02-18T06:07:30.337Z,3.43
2023-02-18T06:10:19.121Z,3.30
2023-02-18T06:13:07.592Z,3.40
2023-02-18T06:15:57.481Z,3.63
2023-02-18T06:18:45.951Z,3.57
2023-02-18T06:21:34.540Z,6.73
2023-02-18T06:24:23.008Z,3.00
2023-02-18T06:27:11.486Z,3.40
2023-02-18T06:30:00.004Z,3.50
2023-02-18T06:32:49.923Z,3.37
2023-02-18T06:35:38.447Z,3.03
2023-02-18T06:38:27.242Z,3.83
2023-02-18T06:41:16.143Z,3.80
2023-02-18T06:44:05.308Z,3.50
2023-02-18T06:46:53.826Z,2.80
2023-02-18T06:49:43.675Z,3.10
2023-02-18T06:52:33.427Z,3.00
2023-02-18T06:55:21.904Z,3.20
2023-02-18T06:58:10.629Z,2.60
2023-02-18T07:00:59.499Z,3.27
2023-02-18T07:03:50.176Z,2.87
2023-02-18T07:06:40.363Z,2.67
2023-02-18T07:09:28.837Z,3.40
2023-02-18T07:12:17.303Z,2.83
2023-02-18T07:15:06.451Z,2.80
2023-02-18T07:17:55.010Z,3.20
2023-02-18T07:20:43.446Z,3.07
2023-02-18T07:23:33.294Z,2.77
2023-02-18T07:26:21.919Z,2.70
2023-02-18T07:29:10.340Z,2.93
2023-02-18T07:31:58.825Z,2.90
2023-02-18T07:34:47.505Z,2.60
2023-02-18T07:37:36.091Z,2.70
2023-02-18T07:40:25.904Z,3.20
2023-02-18T07:43:14.369Z,3.00
2023-02-18T07:46:07.463Z,2.47
2023-02-18T07:48:56.154Z,2.23
2023-02-18T07:51:44.637Z,2.57
2023-02-18T07:54:33.138Z,2.60
2023-02-18T07:57:23.207Z,2.70
2023-02-18T08:00:12.926Z,3.13
2023-02-18T08:03:01.423Z,2.43
2023-02-18T08:05:50.822Z,2.63
2023-02-18T08:08:39.251Z,2.77
2023-02-18T08:11:27.858Z,2.90
2023-02-18T08:14:17.823Z,2.70
2023-02-18T08:17:06.290Z,3.20
2023-02-18T08:19:54.720Z,2.90
2023-02-18T08:22:43.292Z,2.77
2023-02-18T08:25:31.903Z,2.80
2023-02-18T08:28:21.087Z,2.60
2023-02-18T08:31:17.757Z,2.80
2023-02-18T08:34:06.235Z,2.93
2023-02-18T08:36:54.765Z,2.50
2023-02-18T08:39:43.293Z,2.73
2023-02-18T08:42:31.804Z,2.47
2023-02-18T08:45:23.365Z,2.57
2023-02-18T08:48:19.641Z,2.17
2023-02-18T08:51:16.618Z,2.30
2023-02-18T08:54:05.393Z,2.33
2023-02-18T08:56:56.149Z,2.33
2023-02-18T08:59:44.793Z,2.43
2023-02-18T09:02:33.294Z,2.70
2023-02-18T09:05:23.178Z,2.17
2023-02-18T09:08:11.615Z,1.90
2023-02-18T09:11:01.130Z,2.40
2023-02-18T09:13:49.584Z,2.27
2023-02-18T09:16:39.131Z,2.20
2023-02-18T09:19:27.746Z,2.70
2023-02-18T09:22:17.532Z,2.60
2023-02-18T09:25:07.407Z,2.67
2023-02-18T09:27:56.010Z,2.27
2023-02-18T09:30:44.523Z,2.43
2023-02-18T09:33:33.083Z,1.90
2023-02-18T09:36:21.961Z,2.27
2023-02-18T09:39:12.863Z,2.27
2023-02-18T09:42:03.307Z,11.60
2023-02-18T09:44:53.789Z,2.70
2023-02-18T09:47:43.900Z,2.43
2023-02-18T09:50:34.119Z,3.00
2023-02-18T09:53:23.578Z,2.87
2023-02-18T09:56:15.752Z,2.63
2023-02-18T09:59:05.620Z,2.30
2023-02-18T10:01:55.026Z,1.90
2023-02-18T10:04:45.926Z,2.30
2023-02-18T10:07:37.026Z,2.40
2023-02-18T10:10:37.367Z,2.23
2023-02-18T10:13:30.594Z,2.40
2023-02-18T10:16:21.943Z,2.73
2023-02-18T10:19:21.918Z,2.50
2023-02-18T10:22:15.063Z,2.33
2023-02-18T10:25:06.017Z,2.20
2023-02-18T10:27:55.034Z,2.40
2023-02-18T10:30:49.016Z,2.60
2023-02-18T10:33:43.377Z,2.40
2023-02-18T10:36:37.006Z,2.70
2023-02-18T10:39:33.772Z,2.30
2023-02-18T10:42:30.233Z,2.13
2023-02-18T10:45:27.982Z,2.93
2023-02-18T10:48:38.411Z,2.90
2023-02-18T10:51:29.719Z,2.63
2023-02-18T10:54:18.239Z,2.00
2023-02-18T10:57:07.204Z,2.40
2023-02-18T10:59:57.946Z,2.53
2023-02-18T11:02:47.448Z,2.70
2023-02-18T11:05:37.578Z,2.50
2023-02-18T11:08:28.429Z,2.23
2023-02-18T11:11:19.051Z,2.23
2023-02-18T11:14:08.951Z,3.03
2023-02-18T11:17:10.522Z,2.83
2023-02-18T11:20:01.672Z,2.70
2023-02-18T11:22:51.939Z,2.80
2023-02-18T11:25:41.893Z,3.03
2023-02-18T11:28:35.308Z,2.73
2023-02-18T11:31:27.196Z,2.83
2023-02-18T11:34:18.325Z,2.83
2023-02-18T11:37:11.109Z,2.93
2023-02-18T11:40:01.024Z,3.17
2023-02-18T11:42:49.587Z,3.40
2023-02-18T11:45:38.112Z,3.10
2023-02-18T11:48:26.650Z,3.67
2023-02-18T11:51:18.355Z,4.03
2023-02-18T11:54:24.017Z,4.10
2023-02-18T11:57:15.226Z,3.13
2023-02-18T12:00:06.545Z,3.70
2023-02-18T12:02:57.885Z,3.60
2023-02-18T12:05:46.677Z,3.90
2023-02-18T12:08:46.803Z,3.97
2023-02-18T12:11:38.556Z,3.70
2023-02-18T12:14:28.998Z,3.80
2023-02-18T12:17:48.317Z,4.10
2023-02-18T12:20:52.458Z,3.80
2023-02-18T12:23:49.664Z,4.53
2023-02-18T12:26:47.946Z,3.53
2023-02-18T12:29:57.518Z,4.23
2023-02-18T12:32:51.547Z,4.00
2023-02-18T12:35:53.223Z,3.90
2023-02-18T12:39:00.750Z,4.47
2023-02-18T12:41:56.452Z,4.10
2023-02-18T12:44:49.902Z,3.97
2023-02-18T12:48:04.564Z,4.07
2023-02-18T12:51:25.659Z,4.40
2023-02-18T12:54:47.908Z,3.83
2023-02-18T12:57:41.088Z,4.33
2023-02-18T13:00:39.029Z,5.40
2023-02-18T13:03:59.791Z,5.57
2023-02-18T13:07:23.091Z,3.70
2023-02-18T13:10:46.762Z,4.10
2023-02-18T13:13:38.128Z,4.60
2023-02-18T13:16:27.237Z,4.10
2023-02-18T13:19:20.471Z,4.00
2023-02-18T13:22:10.901Z,4.57
2023-02-18T13:25:00.178Z,3.70
2023-02-18T13:27:54.091Z,3.80
2023-02-18T13:30:46.565Z,3.27
2023-02-18T13:33:39.958Z,3.67
2023-02-18T13:36:37.990Z,3.00
2023-02-18T13:39:26.850Z,2.90
2023-02-18T13:42:35.138Z,2.60
2023-02-18T13:45:29.113Z,2.63
2023-02-18T13:48:26.321Z,3.07
2023-02-18T13:51:16.505Z,2.27
2023-02-18T13:54:17.662Z,2.40
2023-02-18T13:57:08.864Z,2.50
2023-02-18T13:59:59.186Z,2.30
2023-02-18T14:02:57.878Z,2.20
2023-02-18T14:05:46.565Z,2.60
2023-02-18T14:08:36.323Z,2.30
2023-02-18T14:11:35.016Z,2.20
2023-02-18T14:14:50.521Z,2.20
2023-02-18T14:17:43.628Z,2.37
2023-02-18T14:20:48.046Z,2.40
2023-02-18T14:23:45.120Z,2.03
2023-02-18T14:26:37.842Z,2.07
2023-02-18T14:29:29.850Z,2.03
2023-02-18T14:32:20.810Z,2.00
2023-02-18T14:35:16.688Z,1.90
2023-02-18T14:38:21.252Z,1.80
2023-02-18T14:41:27.085Z,1.80
2023-02-18T14:44:35.609Z,1.90
2023-02-18T14:47:30.531Z,1.90
2023-02-18T14:50:20.046Z,2.30
2023-02-18T14:53:13.334Z,1.80
2023-02-18T14:56:05.667Z,2.20
2023-02-18T14:58:57.916Z,1.80
2023-02-18T15:01:48.693Z,1.70
2023-02-18T15:04:37.607Z,1.80
2023-02-18T15:07:26.145Z,2.00
2023-02-18T15:10:15.973Z,2.20
2023-02-18T15:13:06.872Z,2.13
2023-02-18T15:15:57.695Z,2.03
2023-02-18T15:18:53.154Z,1.90
2023-02-18T15:21:43.946Z,1.80
2023-02-18T15:24:33.985Z,1.90
2023-02-18T15:27:24.286Z,1.80
2023-02-18T15:30:21.645Z,1.90
2023-02-18T15:33:12.899Z,2.00
2023-02-18T15:36:03.745Z,2.27
2023-02-18T15:38:53.184Z,2.10
2023-02-18T15:41:41.663Z,2.00
2023-02-18T15:44:31.713Z,2.20
2023-02-18T15:47:20.662Z,2.30
2023-02-18T15:50:18.641Z,2.17
2023-02-18T15:53:10.318Z,2.10
2023-02-18T15:55:58.819Z,2.17
2023-02-18T15:58:47.349Z,2.20
2023-02-18T16:01:35.910Z,2.83
2023-02-18T16:04:26.272Z,2.07
2023-02-18T16:07:24.102Z,2.40
2023-02-18T16:10:20.860Z,2.03
2023-02-18T16:13:09.368Z,2.93
2023-02-18T16:16:00.839Z,2.40
2023-02-18T16:18:49.702Z,2.40
2023-02-18T16:21:40.166Z,2.90
2023-02-18T16:24:33.018Z,2.27
2023-02-18T16:27:22.867Z,3.10
2023-02-18T16:30:17.208Z,2.73
2023-02-18T16:33:05.755Z,2.47
2023-02-18T16:35:57.695Z,2.73
2023-02-18T16:38:46.584Z,2.90
2023-02-18T16:41:35.102Z,2.90
2023-02-18T16:44:24.917Z,3.13
2023-02-18T16:47:16.540Z,3.17
2023-02-18T16:50:05.436Z,2.60
2023-02-18T16:52:53.922Z,4.00
2023-02-18T16:55:42.397Z,3.20
2023-02-18T16:58:30.943Z,3.80
2023-02-18T17:01:28.699Z,3.10
2023-02-18T17:04:19.892Z,3.37
2023-02-18T17:07:10.695Z,3.20
2023-02-18T17:09:59.433Z,3.80
2023-02-18T17:12:47.940Z,3.20
2023-02-18T17:15:36.781Z,3.33
2023-02-18T17:18:27.105Z,3.50
2023-02-18T17:21:16.326Z,4.20
2023-02-18T17:24:05.684Z,3.43
2023-02-18T17:26:54.182Z,3.60
2023-02-18T17:29:42.698Z,3.77
2023-02-18T17:32:31.250Z,3.60
2023-02-18T17:35:22.434Z,3.67
2023-02-18T17:38:11.835Z,3.60
2023-02-18T17:41:00.291Z,4.00
2023-02-18T17:43:48.741Z,3.90
2023-02-18T17:46:37.561Z,3.77
2023-02-18T17:49:26.129Z,4.13
2023-02-18T17:52:29.351Z,4.20
2023-02-18T17:55:21.633Z,3.90
2023-02-18T17:58:10.203Z,4.40
2023-02-18T18:00:59.191Z,4.30
2023-02-18T18:03:47.678Z,3.60
2023-02-18T18:06:36.303Z,3.97
2023-02-18T18:09:26.189Z,4.00
2023-02-18T18:12:16.197Z,4.30
2023-02-18T18:15:12.442Z,3.87
2023-02-18T18:18:00.896Z,4.43
2023-02-18T18:20:52.172Z,4.10
2023-02-18T18:23:40.706Z,4.30
2023-02-18T18:26:31.067Z,3.80
2023-02-18T18:29:19.608Z,4.20
2023-02-18T18:32:08.115Z,4.10
2023-02-18T18:34:57.111Z,3.63
2023-02-18T18:37:45.664Z,3.80
2023-02-18T18:40:34.769Z,3.50
2023-02-18T18:43:26.314Z,3.40
2023-02-18T18:46:14.906Z,3.40
2023-02-18T18:49:03.409Z,3.63
2023-02-18T18:51:51.949Z,4.40
2023-02-18T18:54:41.282Z,3.83
2023-02-18T18:57:29.753Z,4.30
2023-02-18T19:00:21.555Z,4.40
2023-02-18T19:03:12.305Z,4.77
2023-02-18T19:06:00.804Z,4.10
2023-02-18T19:08:49.465Z,5.27
2023-02-18T19:11:37.975Z,3.90
2023-02-18T19:14:26.420Z,4.10
2023-02-18T19:17:16.306Z,4.03
2023-02-18T19:20:05.400Z,3.90
2023-02-18T19:22:54.020Z,3.90
2023-02-18T19:25:42.723Z,3.80
2023-02-18T19:28:31.425Z,3.97
2023-02-18T19:31:23.992Z,3.47
2023-02-18T19:34:14.436Z,4.20
2023-02-18T19:37:02.879Z,3.30
2023-02-18T19:39:51.419Z,4.37
2023-02-18T19:42:39.927Z,4.47
2023-02-18T19:45:28.622Z,4.47
2023-02-18T19:48:17.258Z,3.90
2023-02-18T19:51:08.605Z,4.20
2023-02-18T19:53:58.013Z,4.10
2023-02-18T19:56:46.492Z,4.67
2023-02-18T19:59:36.229Z,4.80
2023-02-18T20:02:26.457Z,4.10
2023-02-18T20:05:15.427Z,4.90
2023-02-18T20:08:05.267Z,4.50
2023-02-18T20:10:57.895Z,4.63
2023-02-18T20:13:48.441Z,4.60
2023-02-18T20:16:36.944Z,4.90
2023-02-18T20:19:25.492Z,4.80
2023-02-18T20:22:14.021Z,5.50
2023-02-18T20:25:04.233Z,5.40
2023-02-18T20:28:00.804Z,4.63
2023-02-18T20:30:50.080Z,5.10
2023-02-18T20:33:39.009Z,4.50
2023-02-18T20:36:27.988Z,5.43
2023-02-18T20:39:17.823Z,5.70
2023-02-18T20:42:15.854Z,5.30
2023-02-18T20:45:05.690Z,5.40
2023-02-18T20:47:54.184Z,5.23
2023-02-18T20:50:42.724Z,5.90
2023-02-18T20:53:31.653Z,5.87
2023-02-18T20:56:21.438Z,5.30
2023-02-18T20:59:13.332Z,5.97
2023-02-18T21:02:01.991Z,6.37
2023-02-18T21:04:50.560Z,6.10
2023-02-18T21:07:39.969Z,5.33
2023-02-18T21:10:28.421Z,5.00
2023-02-18T21:13:16.918Z,6.40
2023-02-18T21:16:07.974Z,5.60
2023-02-18T21:18:56.638Z,5.93
2023-02-18T21:21:46.862Z,6.43
2023-02-18T21:24:35.330Z,6.03
2023-02-18T21:27:23.752Z,6.40
2023-02-18T21:30:12.794Z,6.43
2023-02-18T21:33:02.739Z,6.50
2023-02-18T21:35:51.211Z,6.80
2023-02-18T21:38:39.737Z,6.80
2023-02-18T21:41:29.184Z,6.60
2023-02-18T21:44:17.661Z,6.53
2023-02-18T21:47:06.199Z,7.30
2023-02-18T21:49:56.009Z,6.20
2023-02-18T21:52:44.571Z,7.20
2023-02-18T21:55:33.116Z,6.60
2023-02-18T21:58:21.653Z,7.40
2023-02-18T22:01:10.373Z,6.70
2023-02-18T22:03:59.142Z,6.90
2023-02-18T22:06:49.030Z,7.10
2023-02-18T22:09:37.943Z,7.23
2023-02-18T22:12:27.104Z,7.00
2023-02-18T22:15:15.664Z,6.80
2023-02-18T22:18:04.161Z,7.20
2023-02-18T22:20:52.591Z,6.10
2023-02-18T22:23:42.483Z,6.23
2023-02-18T22:26:31.028Z,6.10
2023-02-18T22:29:20.782Z,6.27
2023-02-18T22:32:09.363Z,5.40
2023-02-18T22:34:57.849Z,5.93
2023-02-18T22:37:46.310Z,6.60
2023-02-18T22:40:36.112Z,5.40
2023-02-18T22:43:24.597Z,5.63
2023-02-18T22:46:14.663Z,5.50
2023-02-18T22:49:04.545Z,4.90
2023-02-18T22:51:54.782Z,5.20
2023-02-18T22:54:43.324Z,5.60
2023-02-18T22:57:33.168Z,5.60
2023-02-18T23:00:25.494Z,4.70
2023-02-18T23:03:13.919Z,5.50
2023-02-18T23:06:03.282Z,4.93
2023-02-18T23:08:52.139Z,4.93
2023-02-18T23:11:40.666Z,4.70
2023-02-18T23:14:30.562Z,4.07
2023-02-18T23:17:19.418Z,5.93
2023-02-18T23:20:08.391Z,4.80
2023-02-18T23:22:56.876Z,5.40
2023-02-18T23:25:45.381Z,4.50
2023-02-18T23:28:47.473Z,5.10
2023-02-18T23:31:37.821Z,4.73
2023-02-18T23:34:26.478Z,5.00
2023-02-18T23:37:14.996Z,4.90
2023-02-18T23:40:03.490Z,4.87
2023-02-18T23:42:53.924Z,4.90
2023-02-18T23:45:42.389Z,5.40
2023-02-18T23:48:32.294Z,5.27
2023-02-18T23:51:22.279Z,5.20
2023-02-18T23:54:11.324Z,5.30
2023-02-18T23:56:59.789Z,5.40
2023-02-18T23:59:48.247Z,4.87
